createdAt,value
2017-06-22T00:00:51.245Z,56.48
2017-06-22T00:01:51.866Z,56.60
2017-06-22T00:02:52.544Z,56.51
2017-06-22T00:03:53.151Z,56.70
2017-06-22T00:04:53.819Z,56.19
2017-06-22T00:05:54.471Z,56.22
2017-06-22T00:06:55.091Z,56.12
2017-06-22T00:07:55.736Z,55.83
2017-06-22T00:08:56.344Z,56.22
2017-06-22T00:09:57.012Z,55.93
2017-06-22T00:10:57.632Z,55.80
2017-06-22T00:11:58.256Z,56.12
2017-06-22T00:12:58.871Z,56.67
2017-06-22T00:13:59.497Z,56.29
2017-06-22T00:15:00.202Z,56.67
2017-06-22T00:16:00.822Z,56.57
2017-06-22T00:17:01.441Z,57.15
2017-06-22T00:18:02.059Z,56.86
2017-06-22T00:19:02.711Z,56.96
2017-06-22T00:20:03.379Z,57.06
2017-06-22T00:21:03.999Z,57.15
2017-06-22T00:22:04.619Z,57.06
2017-06-22T00:23:05.280Z,56.86
2017-06-22T00:24:05.897Z,57.06
2017-06-22T00:25:06.565Z,57.15
2017-06-22T00:26:07.183Z,57.50
2017-06-22T00:27:07.827Z,57.31
2017-06-22T00:28:08.435Z,57.31
2017-06-22T00:29:09.081Z,57.21
2017-06-22T00:30:09.738Z,57.89
2017-06-22T00:31:10.355Z,57.70
2017-06-22T00:32:11.007Z,57.79
2017-06-22T00:33:11.637Z,57.50
2017-06-22T00:34:12.243Z,57.70
2017-06-22T00:35:12.861Z,57.60
2017-06-22T00:36:13.479Z,58.08
2017-06-22T00:37:14.163Z,58.08
2017-06-22T00:38:14.767Z,57.79
2017-06-22T00:39:15.385Z,57.89
2017-06-22T00:40:16.127Z,57.98
2017-06-22T00:41:16.734Z,57.89
2017-06-22T00:42:17.381Z,57.98
2017-06-22T00:43:17.984Z,58.46
2017-06-22T00:44:18.603Z,58.65
2017-06-22T00:45:19.322Z,58.75
2017-06-22T00:46:19.944Z,58.56
2017-06-22T00:47:20.561Z,58.56
2017-06-22T00:48:21.186Z,58.56
2017-06-22T00:49:21.839Z,58.46
2017-06-22T00:50:22.515Z,58.37
2017-06-22T00:51:23.129Z,58.56
2017-06-22T00:52:23.747Z,58.37
2017-06-22T00:53:24.371Z,58.37
2017-06-22T00:54:24.992Z,58.56
2017-06-22T00:55:25.658Z,58.65
2017-06-22T00:56:26.312Z,58.37
2017-06-22T00:57:26.929Z,58.56
2017-06-22T00:58:27.548Z,59.04
2017-06-22T00:59:28.167Z,58.56
2017-06-22T01:00:29.098Z,58.46
2017-06-22T01:01:29.704Z,58.84
2017-06-22T01:02:30.322Z,58.46
2017-06-22T01:03:30.941Z,58.56
2017-06-22T01:04:31.561Z,58.37
2017-06-22T01:05:32.231Z,59.13
2017-06-22T01:06:32.848Z,58.75
2017-06-22T01:07:33.467Z,58.75
2017-06-22T01:08:34.118Z,59.13
2017-06-22T01:09:34.722Z,59.23
2017-06-22T01:10:35.390Z,59.04
2017-06-22T01:11:36.010Z,59.13
2017-06-22T01:12:36.656Z,58.75
2017-06-22T01:13:37.313Z,59.23
2017-06-22T01:14:37.928Z,59.52
2017-06-22T01:15:38.598Z,59.13
2017-06-22T01:16:39.216Z,59.04
2017-06-22T01:17:39.834Z,59.13
2017-06-22T01:18:40.459Z,59.42
2017-06-22T01:19:41.074Z,59.23
2017-06-22T01:20:41.748Z,59.33
2017-06-22T01:21:42.363Z,59.61
2017-06-22T01:22:43.013Z,59.42
2017-06-22T01:23:43.620Z,59.71
2017-06-22T01:24:44.243Z,59.80
2017-06-22T01:25:44.908Z,59.33
2017-06-22T01:26:45.527Z,59.33
2017-06-22T01:27:46.184Z,59.80
2017-06-22T01:28:46.799Z,59.61
2017-06-22T01:29:47.433Z,59.80
2017-06-22T01:30:48.092Z,60.00
2017-06-22T01:31:48.708Z,59.90
2017-06-22T01:32:49.351Z,60.00
2017-06-22T01:33:49.957Z,59.80
2017-06-22T01:34:50.578Z,59.71
2017-06-22T01:35:51.247Z,60.00
2017-06-22T01:36:51.865Z,60.28
2017-06-22T01:37:52.483Z,60.19
2017-06-22T01:38:53.133Z,60.73
2017-06-22T01:39:53.735Z,60.93
2017-06-22T01:40:54.403Z,60.83
2017-06-22T01:41:55.023Z,61.40
2017-06-22T01:42:55.669Z,61.50
2017-06-22T01:43:56.274Z,61.02
2017-06-22T01:44:56.892Z,61.11
2017-06-22T01:45:57.563Z,61.40
2017-06-22T01:46:58.217Z,61.40
2017-06-22T01:47:58.858Z,61.60
2017-06-22T01:48:59.509Z,61.98
2017-06-22T01:50:00.134Z,62.17
2017-06-22T01:51:00.801Z,62.07
2017-06-22T01:52:01.420Z,61.88
2017-06-22T01:53:02.045Z,62.55
2017-06-22T01:54:02.660Z,62.46
2017-06-22T01:55:03.311Z,62.55
2017-06-22T01:56:03.985Z,62.55
2017-06-22T01:57:04.606Z,62.26
2017-06-22T01:58:05.222Z,61.98
2017-06-22T01:59:05.844Z,62.07
2017-06-22T02:00:06.466Z,61.88
2017-06-22T02:01:07.138Z,61.69
2017-06-22T02:02:07.796Z,61.79
2017-06-22T02:03:08.414Z,61.69
2017-06-22T02:04:09.033Z,61.98
2017-06-22T02:05:09.678Z,62.17
2017-06-22T02:06:10.339Z,62.07
2017-06-22T02:07:10.957Z,62.01
2017-06-22T02:08:11.572Z,61.69
2017-06-22T02:09:12.192Z,61.69
2017-06-22T02:10:12.809Z,61.69
2017-06-22T02:11:13.477Z,61.69
2017-06-22T02:12:14.098Z,61.63
2017-06-22T02:13:14.718Z,61.60
2017-06-22T02:14:15.335Z,61.69
2017-06-22T02:15:15.955Z,61.88
2017-06-22T02:16:16.622Z,61.79
2017-06-22T02:17:17.242Z,61.88
2017-06-22T02:18:17.888Z,61.69
2017-06-22T02:19:18.492Z,61.88
2017-06-22T02:20:19.110Z,61.69
2017-06-22T02:21:19.781Z,61.88
2017-06-22T02:22:20.402Z,61.98
2017-06-22T02:23:21.020Z,61.69
2017-06-22T02:24:21.664Z,61.79
2017-06-22T02:25:22.304Z,61.60
2017-06-22T02:26:22.957Z,62.17
2017-06-22T02:27:23.575Z,61.98
2017-06-22T02:28:24.194Z,61.79
2017-06-22T02:29:24.839Z,61.79
2017-06-22T02:30:25.446Z,61.88
2017-06-22T02:31:26.115Z,62.07
2017-06-22T02:32:26.765Z,61.88
2017-06-22T02:33:27.368Z,61.88
2017-06-22T02:34:28.052Z,61.79
2017-06-22T02:35:28.706Z,61.88
2017-06-22T02:36:29.406Z,61.98
2017-06-22T02:37:30.024Z,62.07
2017-06-22T02:38:30.642Z,61.69
2017-06-22T02:39:31.261Z,61.60
2017-06-22T02:40:31.877Z,61.79
2017-06-22T02:41:32.547Z,61.79
2017-06-22T02:42:33.166Z,61.60
2017-06-22T02:43:33.782Z,61.40
2017-06-22T02:44:34.402Z,61.40
2017-06-22T02:45:35.026Z,61.40
2017-06-22T02:46:35.695Z,61.60
2017-06-22T02:47:36.312Z,61.60
2017-06-22T02:48:36.929Z,61.69
2017-06-22T02:49:37.550Z,61.40
2017-06-22T02:50:38.167Z,61.21
2017-06-22T02:51:38.840Z,61.40
2017-06-22T02:52:39.458Z,61.50
2017-06-22T02:53:40.075Z,61.69
2017-06-22T02:54:40.692Z,61.69
2017-06-22T02:55:41.369Z,61.60
2017-06-22T02:56:42.051Z,61.21
2017-06-22T02:57:42.654Z,61.02
2017-06-22T02:58:43.278Z,61.21
2017-06-22T02:59:43.895Z,61.11
2017-06-22T03:00:44.511Z,60.83
2017-06-22T03:01:45.212Z,60.83
2017-06-22T03:02:45.831Z,61.02
2017-06-22T03:03:46.485Z,60.73
2017-06-22T03:04:47.105Z,60.64
2017-06-22T03:05:47.750Z,60.83
2017-06-22T03:06:48.402Z,60.73
2017-06-22T03:07:49.023Z,60.73
2017-06-22T03:08:49.650Z,60.83
2017-06-22T03:09:50.302Z,60.64
2017-06-22T03:10:50.920Z,60.64
2017-06-22T03:11:51.588Z,60.93
2017-06-22T03:12:52.205Z,60.83
2017-06-22T03:13:52.826Z,61.02
2017-06-22T03:14:53.478Z,61.02
2017-06-22T03:15:54.076Z,60.70
2017-06-22T03:16:54.748Z,60.61
2017-06-22T03:17:55.366Z,60.41
2017-06-22T03:18:55.984Z,60.70
2017-06-22T03:19:56.603Z,60.89
2017-06-22T03:20:57.221Z,60.41
2017-06-22T03:21:57.894Z,59.97
2017-06-22T03:22:58.548Z,59.75
2017-06-22T03:23:59.166Z,59.65
2017-06-22T03:24:59.786Z,59.84
2017-06-22T03:26:00.403Z,59.84
2017-06-22T03:27:01.099Z,59.84
2017-06-22T03:28:01.731Z,60.03
2017-06-22T03:29:02.337Z,60.03
2017-06-22T03:30:02.953Z,60.06
2017-06-22T03:31:03.570Z,59.97
2017-06-22T03:32:04.239Z,59.87
2017-06-22T03:33:04.889Z,59.84
2017-06-22T03:34:05.542Z,59.87
2017-06-22T03:35:06.161Z,60.03
2017-06-22T03:36:06.806Z,59.87
2017-06-22T03:37:07.459Z,59.87
2017-06-22T03:38:08.078Z,59.84
2017-06-22T03:39:08.733Z,60.25
2017-06-22T03:40:09.386Z,60.16
2017-06-22T03:41:10.006Z,60.25
2017-06-22T03:42:10.672Z,60.03
2017-06-22T03:43:11.290Z,60.25
2017-06-22T03:44:11.914Z,59.97
2017-06-22T03:45:12.529Z,60.03
2017-06-22T03:46:13.149Z,59.75
2017-06-22T03:47:13.816Z,59.65
2017-06-22T03:48:14.435Z,59.94
2017-06-22T03:49:15.053Z,59.84
2017-06-22T03:50:15.706Z,59.68
2017-06-22T03:51:16.323Z,59.94
2017-06-22T03:52:16.990Z,59.77
2017-06-22T03:53:17.634Z,59.77
2017-06-22T03:54:18.241Z,59.77
2017-06-22T03:55:18.858Z,59.77
2017-06-22T03:56:19.477Z,59.97
2017-06-22T03:57:20.174Z,59.87
2017-06-22T03:58:20.777Z,59.87
2017-06-22T03:59:21.395Z,59.87
2017-06-22T04:00:22.017Z,60.06
2017-06-22T04:01:22.635Z,60.35
2017-06-22T04:02:23.306Z,59.97
2017-06-22T04:03:23.948Z,59.97
2017-06-22T04:04:24.557Z,59.77
2017-06-22T04:05:25.237Z,59.68
2017-06-22T04:06:25.844Z,59.77
2017-06-22T04:07:26.511Z,59.97
2017-06-22T04:08:27.138Z,60.06
2017-06-22T04:09:27.755Z,60.16
2017-06-22T04:10:28.374Z,59.97
2017-06-22T04:11:29.026Z,60.06
2017-06-22T04:12:29.730Z,59.97
2017-06-22T04:13:30.349Z,60.06
2017-06-22T04:14:30.973Z,59.97
2017-06-22T04:15:31.592Z,59.97
2017-06-22T04:16:32.210Z,60.25
2017-06-22T04:17:32.879Z,60.25
2017-06-22T04:18:33.497Z,60.06
2017-06-22T04:19:34.155Z,60.16
2017-06-22T04:20:34.777Z,60.25
2017-06-22T04:21:35.395Z,60.06
2017-06-22T04:22:36.096Z,60.44
2017-06-22T04:23:36.698Z,60.16
2017-06-22T04:24:37.324Z,60.25
2017-06-22T04:25:37.940Z,60.06
2017-06-22T04:26:38.558Z,60.25
2017-06-22T04:27:39.234Z,59.77
2017-06-22T04:28:39.850Z,59.77
2017-06-22T04:29:40.495Z,60.06
2017-06-22T04:30:41.102Z,59.77
2017-06-22T04:31:41.719Z,59.68
2017-06-22T04:32:42.390Z,59.77
2017-06-22T04:33:43.044Z,59.39
2017-06-22T04:34:43.663Z,59.39
2017-06-22T04:35:44.284Z,58.81
2017-06-22T04:36:44.903Z,59.48
2017-06-22T04:37:45.597Z,59.39
2017-06-22T04:38:46.203Z,59.20
2017-06-22T04:39:46.821Z,59.20
2017-06-22T04:40:47.442Z,58.81
2017-06-22T04:41:48.062Z,58.81
2017-06-22T04:42:48.731Z,58.81
2017-06-22T04:43:49.385Z,59.01
2017-06-22T04:44:50.017Z,59.01
2017-06-22T04:45:50.675Z,59.20
2017-06-22T04:46:51.290Z,59.30
2017-06-22T04:47:51.961Z,59.01
2017-06-22T04:48:52.584Z,58.81
2017-06-22T04:49:53.259Z,58.53
2017-06-22T04:50:53.871Z,59.01
2017-06-22T04:51:54.488Z,58.91
2017-06-22T04:52:55.159Z,58.81
2017-06-22T04:53:55.809Z,59.01
2017-06-22T04:54:56.475Z,58.72
2017-06-22T04:55:57.138Z,59.01
2017-06-22T04:56:57.761Z,58.72
2017-06-22T04:57:58.428Z,58.91
2017-06-22T04:58:59.054Z,58.72
2017-06-22T04:59:59.669Z,58.91
2017-06-22T05:01:00.289Z,58.72
2017-06-22T05:02:00.909Z,58.72
2017-06-22T05:03:01.579Z,58.81
2017-06-22T05:04:02.198Z,58.91
2017-06-22T05:05:02.818Z,58.81
2017-06-22T05:06:03.436Z,58.72
2017-06-22T05:07:04.060Z,58.91
2017-06-22T05:08:04.726Z,58.91
2017-06-22T05:09:05.347Z,59.11
2017-06-22T05:10:05.965Z,58.53
2017-06-22T05:11:06.610Z,58.53
2017-06-22T05:12:07.215Z,58.72
2017-06-22T05:13:07.883Z,58.34
2017-06-22T05:14:08.563Z,58.24
2017-06-22T05:15:09.243Z,58.34
2017-06-22T05:16:09.850Z,58.34
2017-06-22T05:17:10.470Z,58.62
2017-06-22T05:18:11.137Z,58.53
2017-06-22T05:19:11.757Z,58.62
2017-06-22T05:20:12.408Z,58.53
2017-06-22T05:21:13.011Z,58.62
2017-06-22T05:22:13.631Z,58.62
2017-06-22T05:23:14.302Z,58.62
2017-06-22T05:24:14.953Z,58.62
2017-06-22T05:25:15.579Z,58.53
2017-06-22T05:26:16.194Z,58.53
2017-06-22T05:27:16.814Z,58.62
2017-06-22T05:28:17.483Z,58.72
2017-06-22T05:29:18.103Z,58.53
2017-06-22T05:30:18.729Z,57.95
2017-06-22T05:31:19.350Z,57.76
2017-06-22T05:32:19.974Z,57.95
2017-06-22T05:33:20.639Z,57.86
2017-06-22T05:34:21.258Z,58.15
2017-06-22T05:35:21.878Z,57.95
2017-06-22T05:36:22.496Z,58.15
2017-06-22T05:37:23.142Z,57.95
2017-06-22T05:38:23.847Z,57.76
2017-06-22T05:39:24.467Z,57.95
2017-06-22T05:40:25.124Z,58.44
2017-06-22T05:41:25.771Z,58.34
2017-06-22T05:42:26.375Z,58.53
2017-06-22T05:43:27.044Z,58.53
2017-06-22T05:44:27.669Z,58.44
2017-06-22T05:45:28.286Z,58.53
2017-06-22T05:46:28.905Z,58.34
2017-06-22T05:47:29.522Z,58.44
2017-06-22T05:48:30.192Z,58.44
2017-06-22T05:49:30.838Z,58.53
2017-06-22T05:50:31.443Z,58.72
2017-06-22T05:51:32.067Z,58.44
2017-06-22T05:52:32.690Z,58.24
2017-06-22T05:53:33.357Z,58.44
2017-06-22T05:54:33.978Z,58.44
2017-06-22T05:55:34.595Z,58.44
2017-06-22T05:56:35.212Z,58.62
2017-06-22T05:57:35.865Z,58.24
2017-06-22T05:58:36.535Z,58.72
2017-06-22T05:59:37.154Z,58.62
2017-06-22T06:00:37.774Z,58.44
2017-06-22T06:01:38.393Z,58.53
2017-06-22T06:02:39.011Z,59.30
2017-06-22T06:03:39.681Z,58.34
2017-06-22T06:04:40.301Z,58.53
2017-06-22T06:05:40.926Z,58.46
2017-06-22T06:06:41.564Z,58.53
2017-06-22T06:07:42.173Z,59.13
2017-06-22T06:08:42.868Z,58.81
2017-06-22T06:09:43.473Z,59.01
2017-06-22T06:10:44.095Z,58.65
2017-06-22T06:11:44.744Z,58.81
2017-06-22T06:12:45.377Z,59.42
2017-06-22T06:13:46.035Z,59.42
2017-06-22T06:14:46.683Z,59.04
2017-06-22T06:15:47.292Z,58.94
2017-06-22T06:16:47.911Z,58.84
2017-06-22T06:17:48.534Z,58.94
2017-06-22T06:18:49.235Z,59.52
2017-06-22T06:19:49.841Z,58.75
2017-06-22T06:20:50.459Z,59.23
2017-06-22T06:21:51.086Z,58.75
2017-06-22T06:22:51.705Z,58.94
2017-06-22T06:23:52.375Z,59.04
2017-06-22T06:24:52.995Z,59.06
2017-06-22T06:25:53.614Z,58.87
2017-06-22T06:26:54.242Z,58.78
2017-06-22T06:27:54.861Z,59.16
2017-06-22T06:28:55.532Z,58.59
2017-06-22T06:29:56.158Z,59.26
2017-06-22T06:30:56.776Z,58.69
2017-06-22T06:31:57.399Z,58.39
2017-06-22T06:32:58.025Z,58.30
2017-06-22T06:33:58.692Z,58.78
2017-06-22T06:34:59.316Z,58.59
2017-06-22T06:35:59.965Z,58.87
2017-06-22T06:37:00.598Z,58.69
2017-06-22T06:38:01.205Z,58.49
2017-06-22T06:39:01.881Z,58.62
2017-06-22T06:40:02.505Z,58.23
2017-06-22T06:41:03.124Z,58.20
2017-06-22T06:42:03.743Z,58.20
2017-06-22T06:43:04.364Z,58.14
2017-06-22T06:44:05.034Z,58.11
2017-06-22T06:45:05.656Z,57.92
2017-06-22T06:46:06.276Z,58.33
2017-06-22T06:47:06.897Z,58.14
2017-06-22T06:48:07.523Z,58.14
2017-06-22T06:49:08.190Z,58.23
2017-06-22T06:50:08.817Z,57.85
2017-06-22T06:51:09.442Z,57.85
2017-06-22T06:52:10.062Z,58.14
2017-06-22T06:53:10.680Z,57.56
2017-06-22T06:54:11.353Z,58.52
2017-06-22T06:55:12.002Z,57.85
2017-06-22T06:56:12.610Z,58.23
2017-06-22T06:57:13.234Z,58.14
2017-06-22T06:58:13.883Z,58.33
2017-06-22T06:59:14.543Z,57.37
2017-06-22T07:00:15.168Z,57.75
2017-06-22T07:01:15.789Z,57.85
2017-06-22T07:02:16.413Z,57.65
2017-06-22T07:03:17.095Z,57.95
2017-06-22T07:04:17.783Z,56.89
2017-06-22T07:05:18.439Z,57.37
2017-06-22T07:06:19.087Z,57.21
2017-06-22T07:07:19.698Z,57.30
2017-06-22T07:08:20.355Z,57.59
2017-06-22T07:09:21.026Z,57.97
2017-06-22T07:10:21.648Z,57.40
2017-06-22T07:11:22.269Z,57.78
2017-06-22T07:12:22.892Z,57.97
2017-06-22T07:13:23.556Z,57.59
2017-06-22T07:14:24.226Z,57.78
2017-06-22T07:15:24.881Z,57.88
2017-06-22T07:16:25.502Z,57.21
2017-06-22T07:17:26.126Z,57.97
2017-06-22T07:18:26.749Z,57.78
2017-06-22T07:19:27.422Z,57.68
2017-06-22T07:20:28.043Z,57.50
2017-06-22T07:21:28.667Z,57.50
2017-06-22T07:22:29.294Z,57.30
2017-06-22T07:23:29.915Z,57.40
2017-06-22T07:24:30.592Z,57.40
2017-06-22T07:25:31.212Z,57.52
2017-06-22T07:26:31.835Z,57.52
2017-06-22T07:27:32.485Z,57.59
2017-06-22T07:28:33.092Z,57.04
2017-06-22T07:29:33.765Z,57.04
2017-06-22T07:30:34.388Z,56.85
2017-06-22T07:31:35.011Z,56.85
2017-06-22T07:32:35.669Z,57.62
2017-06-22T07:33:36.290Z,56.95
2017-06-22T07:34:36.962Z,56.95
2017-06-22T07:35:37.587Z,57.14
2017-06-22T07:36:38.208Z,57.23
2017-06-22T07:37:38.831Z,57.23
2017-06-22T07:38:39.453Z,56.95
2017-06-22T07:39:40.126Z,56.85
2017-06-22T07:40:40.751Z,57.52
2017-06-22T07:41:41.371Z,57.81
2017-06-22T07:42:41.995Z,57.45
2017-06-22T07:43:42.617Z,57.75
2017-06-22T07:44:43.292Z,57.55
2017-06-22T07:45:43.940Z,57.45
2017-06-22T07:46:44.552Z,57.65
2017-06-22T07:47:45.175Z,56.98
2017-06-22T07:48:45.799Z,57.17
2017-06-22T07:49:46.473Z,57.17
2017-06-22T07:50:47.096Z,57.65
2017-06-22T07:51:47.718Z,57.26
2017-06-22T07:52:48.340Z,57.07
2017-06-22T07:53:48.969Z,56.98
2017-06-22T07:54:49.638Z,56.98
2017-06-22T07:55:50.260Z,56.68
2017-06-22T07:56:50.883Z,56.78
2017-06-22T07:57:51.507Z,56.88
2017-06-22T07:58:52.133Z,56.88
2017-06-22T07:59:52.803Z,56.78
2017-06-22T08:00:53.426Z,56.59
2017-06-22T08:01:54.082Z,56.59
2017-06-22T08:02:54.706Z,57.00
2017-06-22T08:03:55.330Z,57.26
2017-06-22T08:04:56.001Z,56.62
2017-06-22T08:05:56.624Z,56.33
2017-06-22T08:06:57.246Z,56.81
2017-06-22T08:07:57.871Z,56.23
2017-06-22T08:08:58.526Z,56.62
2017-06-22T08:09:59.183Z,56.71
2017-06-22T08:10:59.806Z,56.43
2017-06-22T08:12:00.431Z,56.04
2017-06-22T08:13:01.086Z,56.33
2017-06-22T08:14:01.710Z,56.91
2017-06-22T08:15:02.383Z,56.33
2017-06-22T08:16:03.007Z,56.33
2017-06-22T08:17:03.631Z,56.62
2017-06-22T08:18:04.253Z,56.43
2017-06-22T08:19:04.880Z,56.71
2017-06-22T08:20:05.578Z,56.74
2017-06-22T08:21:06.187Z,57.13
2017-06-22T08:22:06.813Z,56.93
2017-06-22T08:23:07.440Z,56.55
2017-06-22T08:24:08.059Z,56.84
2017-06-22T08:25:08.733Z,56.65
2017-06-22T08:26:09.363Z,56.36
2017-06-22T08:27:09.984Z,56.16
2017-06-22T08:28:10.606Z,56.45
2017-06-22T08:29:11.227Z,56.45
2017-06-22T08:30:11.902Z,56.93
2017-06-22T08:31:12.528Z,56.96
2017-06-22T08:32:13.149Z,56.77
2017-06-22T08:33:13.772Z,56.77
2017-06-22T08:34:14.398Z,56.58
2017-06-22T08:35:15.097Z,56.77
2017-06-22T08:36:15.709Z,56.87
2017-06-22T08:37:16.332Z,56.00
2017-06-22T08:38:16.955Z,56.00
2017-06-22T08:39:17.579Z,56.00
2017-06-22T08:40:18.283Z,55.52
2017-06-22T08:41:18.920Z,55.81
2017-06-22T08:42:19.555Z,55.81
2017-06-22T08:43:20.167Z,56.38
2017-06-22T08:44:20.791Z,56.87
2017-06-22T08:45:21.501Z,56.00
2017-06-22T08:46:22.124Z,55.71
2017-06-22T08:47:22.747Z,56.20
2017-06-22T08:48:23.371Z,55.83
2017-06-22T08:49:23.995Z,56.41
2017-06-22T08:50:24.670Z,56.41
2017-06-22T08:51:25.321Z,56.22
2017-06-22T08:52:25.932Z,55.74
2017-06-22T08:53:26.555Z,55.93
2017-06-22T08:54:27.181Z,55.65
2017-06-22T08:55:27.878Z,56.03
2017-06-22T08:56:28.491Z,55.83
2017-06-22T08:57:29.115Z,55.93
2017-06-22T08:58:29.739Z,56.03
2017-06-22T08:59:30.396Z,55.83
2017-06-22T09:00:31.071Z,55.45
2017-06-22T09:01:31.696Z,55.65
2017-06-22T09:02:32.320Z,55.74
2017-06-22T09:03:32.949Z,55.45
2017-06-22T09:04:33.572Z,55.55
2017-06-22T09:05:34.247Z,55.83
2017-06-22T09:06:34.871Z,55.55
2017-06-22T09:07:35.496Z,55.35
2017-06-22T09:08:36.156Z,55.65
2017-06-22T09:09:36.778Z,56.54
2017-06-22T09:10:37.451Z,55.67
2017-06-22T09:11:38.076Z,55.87
2017-06-22T09:12:38.707Z,55.96
2017-06-22T09:13:39.329Z,55.19
2017-06-22T09:14:39.985Z,55.00
2017-06-22T09:15:40.660Z,55.77
2017-06-22T09:16:41.320Z,56.05
2017-06-22T09:17:41.944Z,55.02
2017-06-22T09:18:42.570Z,55.31
2017-06-22T09:19:43.193Z,55.22
2017-06-22T09:20:43.867Z,55.12
2017-06-22T09:21:44.494Z,55.31
2017-06-22T09:22:45.118Z,55.60
2017-06-22T09:23:45.743Z,54.74
2017-06-22T09:24:46.367Z,54.35
2017-06-22T09:25:47.044Z,54.74
2017-06-22T09:26:47.669Z,54.44
2017-06-22T09:27:48.292Z,54.38
2017-06-22T09:28:48.916Z,54.57
2017-06-22T09:29:49.540Z,54.38
2017-06-22T09:30:50.250Z,54.86
2017-06-22T09:31:50.875Z,54.47
2017-06-22T09:32:51.500Z,54.57
2017-06-22T09:33:52.158Z,54.47
2017-06-22T09:34:52.815Z,54.09
2017-06-22T09:35:53.490Z,54.40
2017-06-22T09:36:54.121Z,54.31
2017-06-22T09:37:54.745Z,54.11
2017-06-22T09:38:55.375Z,54.50
2017-06-22T09:39:56.000Z,54.11
2017-06-22T09:40:56.676Z,54.31
2017-06-22T09:41:57.305Z,53.83
2017-06-22T09:42:57.931Z,53.92
2017-06-22T09:43:58.555Z,53.83
2017-06-22T09:44:59.205Z,53.53
2017-06-22T09:45:59.867Z,53.56
2017-06-22T09:47:00.493Z,53.85
2017-06-22T09:48:01.118Z,52.98
2017-06-22T09:49:01.749Z,52.89
2017-06-22T09:50:02.387Z,51.73
2017-06-22T09:51:03.054Z,51.25
2017-06-22T09:52:03.675Z,51.80
2017-06-22T09:53:04.302Z,51.73
2017-06-22T09:54:04.931Z,51.82
2017-06-22T09:55:05.556Z,51.25
2017-06-22T09:56:06.231Z,51.25
2017-06-22T09:57:06.858Z,51.25
2017-06-22T09:58:07.483Z,50.86
2017-06-22T09:59:08.109Z,50.18
2017-06-22T10:00:08.733Z,49.80
2017-06-22T10:01:09.438Z,50.18
2017-06-22T10:02:10.049Z,49.60
2017-06-22T10:03:10.697Z,49.12
2017-06-22T10:04:11.309Z,49.15
2017-06-22T10:05:11.965Z,48.95
2017-06-22T10:06:12.626Z,48.37
2017-06-22T10:07:13.278Z,48.47
2017-06-22T10:08:13.891Z,48.08
2017-06-22T10:09:14.518Z,47.22
2017-06-22T10:10:15.142Z,47.81
2017-06-22T10:11:15.818Z,47.53
2017-06-22T10:12:16.451Z,46.85
2017-06-22T10:13:17.073Z,45.31
2017-06-22T10:14:17.699Z,44.90
2017-06-22T10:15:18.324Z,42.77
2017-06-22T10:16:19.003Z,42.97
2017-06-22T10:17:19.628Z,42.10
2017-06-22T10:18:20.253Z,40.26
2017-06-22T10:19:20.884Z,39.97
2017-06-22T10:20:21.508Z,40.94
2017-06-22T10:21:22.186Z,41.03
2017-06-22T10:22:22.821Z,41.71
2017-06-22T10:23:23.454Z,42.12
2017-06-22T10:24:24.079Z,41.15
2017-06-22T10:25:24.734Z,41.44
2017-06-22T10:26:25.410Z,41.44
2017-06-22T10:27:26.065Z,41.05
2017-06-22T10:28:26.676Z,40.86
2017-06-22T10:29:27.302Z,41.05
2017-06-22T10:30:27.933Z,41.15
2017-06-22T10:31:28.607Z,40.67
2017-06-22T10:32:29.232Z,41.05
2017-06-22T10:33:29.882Z,41.35
2017-06-22T10:34:30.493Z,40.98
2017-06-22T10:35:31.123Z,39.41
2017-06-22T10:36:31.833Z,39.03
2017-06-22T10:37:32.460Z,38.64
2017-06-22T10:38:33.087Z,39.22
2017-06-22T10:39:33.713Z,39.03
2017-06-22T10:40:34.371Z,38.85
2017-06-22T10:41:35.031Z,38.95
2017-06-22T10:42:35.656Z,39.06
2017-06-22T10:43:36.283Z,39.04
2017-06-22T10:44:36.911Z,39.04
2017-06-22T10:45:37.536Z,37.42
2017-06-22T10:46:38.213Z,37.62
2017-06-22T10:47:38.905Z,38.28
2017-06-22T10:48:39.514Z,38.28
2017-06-22T10:49:40.142Z,38.39
2017-06-22T10:50:40.767Z,38.87
2017-06-22T10:51:41.442Z,39.06
2017-06-22T10:52:42.070Z,38.79
2017-06-22T10:53:42.703Z,38.70
2017-06-22T10:54:43.325Z,38.21
2017-06-22T10:55:43.957Z,36.66
2017-06-22T10:56:44.632Z,36.66
2017-06-22T10:57:45.258Z,36.66
2017-06-22T10:58:45.889Z,36.66
2017-06-22T10:59:46.515Z,35.80
2017-06-22T11:00:47.147Z,36.96
2017-06-22T11:01:47.822Z,35.80
2017-06-22T11:02:48.450Z,36.47
2017-06-22T11:03:49.102Z,36.76
2017-06-22T11:04:49.716Z,36.18
2017-06-22T11:05:50.343Z,36.66
2017-06-22T11:06:51.022Z,36.66
2017-06-22T11:07:51.649Z,36.57
2017-06-22T11:08:52.276Z,36.78
2017-06-22T11:09:52.905Z,35.91
2017-06-22T11:10:53.529Z,35.81
2017-06-22T11:11:54.206Z,35.91
2017-06-22T11:12:54.831Z,36.10
2017-06-22T11:13:55.486Z,36.00
2017-06-22T11:14:56.147Z,36.00
2017-06-22T11:15:56.799Z,35.73
2017-06-22T11:16:57.511Z,35.72
2017-06-22T11:17:58.163Z,35.44
2017-06-22T11:18:58.782Z,34.55
2017-06-22T11:19:59.412Z,34.55
2017-06-22T11:21:00.044Z,35.62
2017-06-22T11:22:00.749Z,35.83
2017-06-22T11:23:01.362Z,36.41
2017-06-22T11:24:01.987Z,36.12
2017-06-22T11:25:02.645Z,35.85
2017-06-22T11:26:03.257Z,35.75
2017-06-22T11:27:03.937Z,35.46
2017-06-22T11:28:04.565Z,35.46
2017-06-22T11:29:05.192Z,35.48
2017-06-22T11:30:05.820Z,35.67
2017-06-22T11:31:06.448Z,35.48
2017-06-22T11:32:07.153Z,35.67
2017-06-22T11:33:07.769Z,34.99
2017-06-22T11:34:08.402Z,35.57
2017-06-22T11:35:09.032Z,35.09
2017-06-22T11:36:09.658Z,35.09
2017-06-22T11:37:10.370Z,34.80
2017-06-22T11:38:11.003Z,34.31
2017-06-22T11:39:11.633Z,34.70
2017-06-22T11:40:12.264Z,34.22
2017-06-22T11:41:12.890Z,33.92
2017-06-22T11:42:13.570Z,34.41
2017-06-22T11:43:14.198Z,34.31
2017-06-22T11:44:14.832Z,34.61
2017-06-22T11:45:15.465Z,34.70
2017-06-22T11:46:16.087Z,34.22
2017-06-22T11:47:16.766Z,34.51
2017-06-22T11:48:17.394Z,34.61
2017-06-22T11:49:18.021Z,33.94
2017-06-22T11:50:18.676Z,33.75
2017-06-22T11:51:19.290Z,33.73
2017-06-22T11:52:19.968Z,34.31
2017-06-22T11:53:20.622Z,33.92
2017-06-22T11:54:21.235Z,33.75
2017-06-22T11:55:21.896Z,33.65
2017-06-22T11:56:22.509Z,34.04
2017-06-22T11:57:23.186Z,34.33
2017-06-22T11:58:23.815Z,34.43
2017-06-22T11:59:24.442Z,33.65
2017-06-22T12:00:25.072Z,33.83
2017-06-22T12:01:25.699Z,34.22
2017-06-22T12:02:26.386Z,34.04
2017-06-22T12:03:27.013Z,33.83
2017-06-22T12:04:27.638Z,34.14
2017-06-22T12:05:28.302Z,34.70
2017-06-22T12:06:28.929Z,34.62
2017-06-22T12:07:29.608Z,33.56
2017-06-22T12:08:30.237Z,33.64
2017-06-22T12:09:30.871Z,33.06
2017-06-22T12:10:31.532Z,33.06
2017-06-22T12:11:32.163Z,33.83
2017-06-22T12:12:32.839Z,33.83
2017-06-22T12:13:33.468Z,34.02
2017-06-22T12:14:34.097Z,34.51
2017-06-22T12:15:34.725Z,34.51
2017-06-22T12:16:35.356Z,34.04
2017-06-22T12:17:36.034Z,33.46
2017-06-22T12:18:36.663Z,33.84
2017-06-22T12:19:37.292Z,33.75
2017-06-22T12:20:37.921Z,33.75
2017-06-22T12:21:38.550Z,33.26
2017-06-22T12:22:39.228Z,33.17
2017-06-22T12:23:39.883Z,32.87
2017-06-22T12:24:40.528Z,32.78
2017-06-22T12:25:41.167Z,32.97
2017-06-22T12:26:41.809Z,32.59
2017-06-22T12:27:42.474Z,32.78
2017-06-22T12:28:43.104Z,32.87
2017-06-22T12:29:43.739Z,33.07
2017-06-22T12:30:44.364Z,33.25
2017-06-22T12:31:44.993Z,33.07
2017-06-22T12:32:45.671Z,32.68
2017-06-22T12:33:46.298Z,32.59
2017-06-22T12:34:46.928Z,32.68
2017-06-22T12:35:47.589Z,33.25
2017-06-22T12:36:48.252Z,32.76
2017-06-22T12:37:49.221Z,33.36
2017-06-22T12:38:49.852Z,33.26
2017-06-22T12:39:50.478Z,33.46
2017-06-22T12:40:51.107Z,33.65
2017-06-22T12:41:51.733Z,33.38
2017-06-22T12:42:52.414Z,33.18
2017-06-22T12:43:53.045Z,32.79
2017-06-22T12:44:53.678Z,32.21
2017-06-22T12:45:54.312Z,32.70
2017-06-22T12:46:54.937Z,33.57
2017-06-22T12:47:55.615Z,33.11
2017-06-22T12:48:56.251Z,33.01
2017-06-22T12:49:56.874Z,33.29
2017-06-22T12:50:57.534Z,32.42
2017-06-22T12:51:58.175Z,31.63
2017-06-22T12:52:58.841Z,31.92
2017-06-22T12:53:59.469Z,32.50
2017-06-22T12:55:00.099Z,33.11
2017-06-22T12:56:00.728Z,32.32
2017-06-22T12:57:01.357Z,32.32
2017-06-22T12:58:02.035Z,32.50
2017-06-22T12:59:02.665Z,31.63
2017-06-22T13:00:03.292Z,31.63
2017-06-22T13:01:03.948Z,32.21